sensor_id;sensor_type;location;lat;lon;timestamp;P1;durP1;ratioP1;P2;durP2;ratioP2
23270;SDS011;11804;51.118;17.058;2022-08-30T00:01:07;8.38;;;5.53;;
23270;SDS011;11804;51.118;17.058;2022-08-30T00:03:44;9.85;;;6.30;;
23270;SDS011;11804;51.118;17.058;2022-08-30T00:06:10;10.40;;;5.63;;
23270;SDS011;11804;51.118;17.058;2022-08-30T00:08:42;8.13;;;6.05;;
23270;SDS011;11804;51.118;17.058;2022-08-30T00:11:12;10.13;;;6.00;;
23270;SDS011;11804;51.118;17.058;2022-08-30T00:13:43;11.45;;;5.92;;
23270;SDS011;11804;51.118;17.058;2022-08-30T00:16:12;13.25;;;6.90;;
23270;SDS011;11804;51.118;17.058;2022-08-30T00:18:41;13.70;;;6.15;;
23270;SDS011;11804;51.118;17.058;2022-08-30T00:21:09;10.70;;;6.53;;
23270;SDS011;11804;51.118;17.058;2022-08-30T00:23:37;10.10;;;6.50;;
23270;SDS011;11804;51.118;17.058;2022-08-30T00:26:06;9.60;;;6.40;;
23270;SDS011;11804;51.118;17.058;2022-08-30T00:28:36;8.78;;;5.92;;
23270;SDS011;11804;51.118;17.058;2022-08-30T00:31:03;10.25;;;6.45;;
23270;SDS011;11804;51.118;17.058;2022-08-30T00:33:33;8.60;;;6.22;;
23270;SDS011;11804;51.118;17.058;2022-08-30T00:36:01;10.30;;;6.75;;
23270;SDS011;11804;51.118;17.058;2022-08-30T00:38:29;10.03;;;6.62;;
23270;SDS011;11804;51.118;17.058;2022-08-30T00:40:57;10.45;;;7.25;;
23270;SDS011;11804;51.118;17.058;2022-08-30T00:43:27;13.83;;;6.40;;
23270;SDS011;11804;51.118;17.058;2022-08-30T00:45:56;10.00;;;6.97;;
23270;SDS011;11804;51.118;17.058;2022-08-30T00:48:24;8.40;;;6.75;;
23270;SDS011;11804;51.118;17.058;2022-08-30T00:50:53;10.30;;;7.43;;
23270;SDS011;11804;51.118;17.058;2022-08-30T00:53:26;12.05;;;7.95;;
23270;SDS011;11804;51.118;17.058;2022-08-30T00:55:58;14.03;;;8.20;;
23270;SDS011;11804;51.118;17.058;2022-08-30T00:58:30;14.58;;;9.48;;
23270;SDS011;11804;51.118;17.058;2022-08-30T01:00:59;13.65;;;8.75;;
23270;SDS011;11804;51.118;17.058;2022-08-30T01:03:28;13.87;;;8.90;;
23270;SDS011;11804;51.118;17.058;2022-08-30T01:05:57;11.90;;;8.43;;
23270;SDS011;11804;51.118;17.058;2022-08-30T01:08:25;11.30;;;8.43;;
23270;SDS011;11804;51.118;17.058;2022-08-30T01:10:53;12.33;;;8.75;;
23270;SDS011;11804;51.118;17.058;2022-08-30T01:13:22;12.47;;;9.20;;
23270;SDS011;11804;51.118;17.058;2022-08-30T01:15:51;18.63;;;9.57;;
23270;SDS011;11804;51.118;17.058;2022-08-30T01:18:20;12.50;;;9.40;;
23270;SDS011;11804;51.118;17.058;2022-08-30T01:23:20;13.10;;;8.83;;
23270;SDS011;11804;51.118;17.058;2022-08-30T01:25:50;12.75;;;9.00;;
23270;SDS011;11804;51.118;17.058;2022-08-30T01:28:20;12.57;;;8.20;;
23270;SDS011;11804;51.118;17.058;2022-08-30T01:30:53;14.90;;;8.75;;
23270;SDS011;11804;51.118;17.058;2022-08-30T01:33:21;12.67;;;8.20;;
23270;SDS011;11804;51.118;17.058;2022-08-30T01:35:51;11.40;;;8.33;;
23270;SDS011;11804;51.118;17.058;2022-08-30T01:38:36;13.35;;;8.45;;
23270;SDS011;11804;51.118;17.058;2022-08-30T01:41:13;12.18;;;8.30;;
23270;SDS011;11804;51.118;17.058;2022-08-30T01:43:41;13.53;;;8.33;;
23270;SDS011;11804;51.118;17.058;2022-08-30T01:46:09;10.13;;;8.18;;
23270;SDS011;11804;51.118;17.058;2022-08-30T01:48:38;20.45;;;8.95;;
23270;SDS011;11804;51.118;17.058;2022-08-30T01:51:09;13.40;;;9.37;;
23270;SDS011;11804;51.118;17.058;2022-08-30T01:53:39;12.93;;;8.45;;
23270;SDS011;11804;51.118;17.058;2022-08-30T01:56:09;13.15;;;9.25;;
23270;SDS011;11804;51.118;17.058;2022-08-30T01:58:38;18.57;;;10.58;;
23270;SDS011;11804;51.118;17.058;2022-08-30T02:01:07;14.38;;;9.83;;
23270;SDS011;11804;51.118;17.058;2022-08-30T02:03:40;14.35;;;10.23;;
23270;SDS011;11804;51.118;17.058;2022-08-30T02:06:12;18.50;;;10.58;;
23270;SDS011;11804;51.118;17.058;2022-08-30T02:08:40;18.50;;;10.38;;
23270;SDS011;11804;51.118;17.058;2022-08-30T02:11:09;14.53;;;10.50;;
23270;SDS011;11804;51.118;17.058;2022-08-30T02:13:39;13.20;;;10.70;;
23270;SDS011;11804;51.118;17.058;2022-08-30T02:16:10;15.53;;;11.00;;
23270;SDS011;11804;51.118;17.058;2022-08-30T02:18:40;14.58;;;10.45;;
23270;SDS011;11804;51.118;17.058;2022-08-30T02:21:11;13.75;;;9.78;;
23270;SDS011;11804;51.118;17.058;2022-08-30T02:23:40;12.13;;;9.70;;
23270;SDS011;11804;51.118;17.058;2022-08-30T02:26:09;14.53;;;9.65;;
23270;SDS011;11804;51.118;17.058;2022-08-30T02:28:38;11.73;;;9.80;;
23270;SDS011;11804;51.118;17.058;2022-08-30T02:31:05;14.55;;;9.78;;
23270;SDS011;11804;51.118;17.058;2022-08-30T02:33:33;12.70;;;9.60;;
23270;SDS011;11804;51.118;17.058;2022-08-30T02:36:01;12.58;;;9.23;;
23270;SDS011;11804;51.118;17.058;2022-08-30T02:38:30;14.13;;;9.38;;
23270;SDS011;11804;51.118;17.058;2022-08-30T02:40:57;16.25;;;9.53;;
23270;SDS011;11804;51.118;17.058;2022-08-30T02:43:25;11.78;;;9.38;;
23270;SDS011;11804;51.118;17.058;2022-08-30T02:45:53;16.27;;;9.85;;
23270;SDS011;11804;51.118;17.058;2022-08-30T02:48:21;11.63;;;8.50;;
23270;SDS011;11804;51.118;17.058;2022-08-30T02:50:49;13.18;;;9.13;;
23270;SDS011;11804;51.118;17.058;2022-08-30T02:53:20;11.73;;;8.85;;
23270;SDS011;11804;51.118;17.058;2022-08-30T02:55:48;14.23;;;9.60;;
23270;SDS011;11804;51.118;17.058;2022-08-30T02:58:16;12.47;;;8.45;;
23270;SDS011;11804;51.118;17.058;2022-08-30T03:00:45;12.60;;;9.10;;
23270;SDS011;11804;51.118;17.058;2022-08-30T03:03:12;13.15;;;8.58;;
23270;SDS011;11804;51.118;17.058;2022-08-30T03:05:40;14.07;;;8.53;;
23270;SDS011;11804;51.118;17.058;2022-08-30T03:08:07;13.88;;;9.38;;
23270;SDS011;11804;51.118;17.058;2022-08-30T03:10:36;10.15;;;8.28;;
23270;SDS011;11804;51.118;17.058;2022-08-30T03:13:04;12.98;;;8.98;;
23270;SDS011;11804;51.118;17.058;2022-08-30T03:15:34;11.93;;;8.78;;
23270;SDS011;11804;51.118;17.058;2022-08-30T03:18:04;15.25;;;9.48;;
23270;SDS011;11804;51.118;17.058;2022-08-30T03:20:32;14.83;;;9.15;;
23270;SDS011;11804;51.118;17.058;2022-08-30T03:23:03;14.23;;;9.83;;
23270;SDS011;11804;51.118;17.058;2022-08-30T03:25:30;17.20;;;10.08;;
23270;SDS011;11804;51.118;17.058;2022-08-30T03:27:58;14.70;;;10.07;;
23270;SDS011;11804;51.118;17.058;2022-08-30T03:30:28;17.35;;;9.80;;
23270;SDS011;11804;51.118;17.058;2022-08-30T03:32:56;14.50;;;9.65;;
23270;SDS011;11804;51.118;17.058;2022-08-30T03:35:23;15.63;;;9.23;;
23270;SDS011;11804;51.118;17.058;2022-08-30T03:37:53;14.28;;;9.40;;
23270;SDS011;11804;51.118;17.058;2022-08-30T03:40:22;16.45;;;8.95;;
23270;SDS011;11804;51.118;17.058;2022-08-30T03:42:51;12.55;;;8.98;;
23270;SDS011;11804;51.118;17.058;2022-08-30T03:45:18;16.70;;;9.37;;
23270;SDS011;11804;51.118;17.058;2022-08-30T03:47:48;13.28;;;9.05;;
23270;SDS011;11804;51.118;17.058;2022-08-30T03:50:15;17.05;;;9.38;;
23270;SDS011;11804;51.118;17.058;2022-08-30T03:52:47;18.40;;;9.25;;
23270;SDS011;11804;51.118;17.058;2022-08-30T03:55:16;19.25;;;9.58;;
23270;SDS011;11804;51.118;17.058;2022-08-30T03:57:46;13.98;;;9.53;;
23270;SDS011;11804;51.118;17.058;2022-08-30T04:00:14;17.30;;;9.10;;
23270;SDS011;11804;51.118;17.058;2022-08-30T04:02:43;12.18;;;9.28;;
23270;SDS011;11804;51.118;17.058;2022-08-30T04:05:11;14.43;;;8.83;;
23270;SDS011;11804;51.118;17.058;2022-08-30T04:07:39;20.90;;;10.05;;
23270;SDS011;11804;51.118;17.058;2022-08-30T04:10:07;14.38;;;9.53;;
23270;SDS011;11804;51.118;17.058;2022-08-30T04:12:39;12.15;;;9.35;;
23270;SDS011;11804;51.118;17.058;2022-08-30T04:15:09;22.48;;;11.10;;
23270;SDS011;11804;51.118;17.058;2022-08-30T04:17:37;15.53;;;10.07;;
23270;SDS011;11804;51.118;17.058;2022-08-30T04:20:05;16.00;;;10.38;;
23270;SDS011;11804;51.118;17.058;2022-08-30T04:22:34;14.93;;;10.50;;
23270;SDS011;11804;51.118;17.058;2022-08-30T04:25:02;11.63;;;9.70;;
23270;SDS011;11804;51.118;17.058;2022-08-30T04:27:31;20.77;;;10.90;;
23270;SDS011;11804;51.118;17.058;2022-08-30T04:30:04;17.67;;;10.15;;
23270;SDS011;11804;51.118;17.058;2022-08-30T04:32:33;15.10;;;10.00;;
23270;SDS011;11804;51.118;17.058;2022-08-30T04:35:01;13.48;;;10.15;;
23270;SDS011;11804;51.118;17.058;2022-08-30T04:37:29;17.20;;;10.13;;
23270;SDS011;11804;51.118;17.058;2022-08-30T04:39:57;17.10;;;10.18;;
23270;SDS011;11804;51.118;17.058;2022-08-30T04:42:26;18.50;;;10.32;;
23270;SDS011;11804;51.118;17.058;2022-08-30T04:44:57;18.40;;;9.85;;
23270;SDS011;11804;51.118;17.058;2022-08-30T04:47:25;17.00;;;10.30;;
23270;SDS011;11804;51.118;17.058;2022-08-30T04:49:54;14.43;;;9.40;;
23270;SDS011;11804;51.118;17.058;2022-08-30T04:52:22;16.62;;;9.63;;
23270;SDS011;11804;51.118;17.058;2022-08-30T04:54:59;17.05;;;10.13;;
23270;SDS011;11804;51.118;17.058;2022-08-30T04:57:22;17.48;;;10.25;;
23270;SDS011;11804;51.118;17.058;2022-08-30T04:59:53;24.12;;;10.65;;
23270;SDS011;11804;51.118;17.058;2022-08-30T05:02:21;19.40;;;10.40;;
23270;SDS011;11804;51.118;17.058;2022-08-30T05:04:51;24.60;;;10.30;;
23270;SDS011;11804;51.118;17.058;2022-08-30T05:07:39;17.50;;;9.80;;
23270;SDS011;11804;51.118;17.058;2022-08-30T05:10:06;19.98;;;9.28;;
23270;SDS011;11804;51.118;17.058;2022-08-30T05:12:33;16.02;;;9.70;;
23270;SDS011;11804;51.118;17.058;2022-08-30T05:15:01;15.65;;;9.90;;
23270;SDS011;11804;51.118;17.058;2022-08-30T05:17:29;13.38;;;8.88;;
23270;SDS011;11804;51.118;17.058;2022-08-30T05:19:57;14.20;;;9.55;;
23270;SDS011;11804;51.118;17.058;2022-08-30T05:22:30;25.52;;;10.10;;
23270;SDS011;11804;51.118;17.058;2022-08-30T05:25:01;16.75;;;8.70;;
23270;SDS011;11804;51.118;17.058;2022-08-30T05:27:30;15.28;;;8.75;;
23270;SDS011;11804;51.118;17.058;2022-08-30T05:29:57;23.83;;;15.10;;
23270;SDS011;11804;51.118;17.058;2022-08-30T05:32:25;15.40;;;10.80;;
23270;SDS011;11804;51.118;17.058;2022-08-30T05:34:54;12.65;;;8.53;;
23270;SDS011;11804;51.118;17.058;2022-08-30T05:37:21;12.03;;;8.38;;
23270;SDS011;11804;51.118;17.058;2022-08-30T05:39:49;14.30;;;9.28;;
23270;SDS011;11804;51.118;17.058;2022-08-30T05:42:17;15.58;;;8.83;;
23270;SDS011;11804;51.118;17.058;2022-08-30T05:44:44;14.75;;;9.05;;
23270;SDS011;11804;51.118;17.058;2022-08-30T05:47:15;21.57;;;9.33;;
23270;SDS011;11804;51.118;17.058;2022-08-30T05:49:43;29.05;;;10.28;;
23270;SDS011;11804;51.118;17.058;2022-08-30T05:52:10;24.23;;;10.00;;
23270;SDS011;11804;51.118;17.058;2022-08-30T05:54:40;16.25;;;10.40;;
23270;SDS011;11804;51.118;17.058;2022-08-30T05:57:08;15.78;;;9.48;;
23270;SDS011;11804;51.118;17.058;2022-08-30T05:59:36;14.80;;;8.78;;
23270;SDS011;11804;51.118;17.058;2022-08-30T06:02:04;15.23;;;8.63;;
23270;SDS011;11804;51.118;17.058;2022-08-30T06:04:32;14.85;;;8.70;;
23270;SDS011;11804;51.118;17.058;2022-08-30T06:07:04;20.17;;;8.80;;
23270;SDS011;11804;51.118;17.058;2022-08-30T06:09:32;13.65;;;8.68;;
23270;SDS011;11804;51.118;17.058;2022-08-30T06:11:59;17.77;;;9.68;;
23270;SDS011;11804;51.118;17.058;2022-08-30T06:14:27;19.87;;;9.30;;
23270;SDS011;11804;51.118;17.058;2022-08-30T06:16:54;15.48;;;8.25;;
23270;SDS011;11804;51.118;17.058;2022-08-30T06:19:23;13.32;;;8.25;;
23270;SDS011;11804;51.118;17.058;2022-08-30T06:21:50;12.95;;;8.23;;
23270;SDS011;11804;51.118;17.058;2022-08-30T06:24:18;13.88;;;7.90;;
23270;SDS011;11804;51.118;17.058;2022-08-30T06:26:46;12.75;;;8.80;;
23270;SDS011;11804;51.118;17.058;2022-08-30T06:29:15;24.65;;;8.50;;
23270;SDS011;11804;51.118;17.058;2022-08-30T06:31:44;16.50;;;8.48;;
23270;SDS011;11804;51.118;17.058;2022-08-30T06:34:13;18.25;;;8.80;;
23270;SDS011;11804;51.118;17.058;2022-08-30T06:36:43;12.98;;;8.40;;
23270;SDS011;11804;51.118;17.058;2022-08-30T06:39:10;11.45;;;8.48;;
23270;SDS011;11804;51.118;17.058;2022-08-30T06:41:39;14.18;;;8.45;;
23270;SDS011;11804;51.118;17.058;2022-08-30T06:44:07;18.60;;;8.45;;
23270;SDS011;11804;51.118;17.058;2022-08-30T06:46:36;17.23;;;8.53;;
23270;SDS011;11804;51.118;17.058;2022-08-30T06:49:05;12.55;;;7.95;;
23270;SDS011;11804;51.118;17.058;2022-08-30T06:51:34;15.23;;;7.85;;
23270;SDS011;11804;51.118;17.058;2022-08-30T06:54:04;12.35;;;8.33;;
23270;SDS011;11804;51.118;17.058;2022-08-30T06:56:33;13.48;;;8.30;;
23270;SDS011;11804;51.118;17.058;2022-08-30T06:59:02;10.18;;;6.90;;
23270;SDS011;11804;51.118;17.058;2022-08-30T07:01:30;12.55;;;8.10;;
23270;SDS011;11804;51.118;17.058;2022-08-30T07:03:58;13.18;;;8.08;;
23270;SDS011;11804;51.118;17.058;2022-08-30T07:06:27;19.57;;;8.98;;
23270;SDS011;11804;51.118;17.058;2022-08-30T07:08:55;12.73;;;8.78;;
23270;SDS011;11804;51.118;17.058;2022-08-30T07:13:57;16.65;;;8.93;;
23270;SDS011;11804;51.118;17.058;2022-08-30T07:16:27;16.87;;;9.10;;
23270;SDS011;11804;51.118;17.058;2022-08-30T07:18:55;19.85;;;8.83;;
23270;SDS011;11804;51.118;17.058;2022-08-30T07:21:25;11.80;;;7.60;;
23270;SDS011;11804;51.118;17.058;2022-08-30T07:23:54;11.43;;;7.60;;
23270;SDS011;11804;51.118;17.058;2022-08-30T07:26:28;12.18;;;8.63;;
23270;SDS011;11804;51.118;17.058;2022-08-30T07:28:56;9.60;;;7.95;;
23270;SDS011;11804;51.118;17.058;2022-08-30T07:31:24;24.23;;;8.40;;
23270;SDS011;11804;51.118;17.058;2022-08-30T07:33:51;9.18;;;7.35;;
23270;SDS011;11804;51.118;17.058;2022-08-30T07:36:21;11.57;;;7.87;;
23270;SDS011;11804;51.118;17.058;2022-08-30T07:38:50;12.68;;;7.90;;
23270;SDS011;11804;51.118;17.058;2022-08-30T07:41:24;13.10;;;7.55;;
23270;SDS011;11804;51.118;17.058;2022-08-30T07:43:53;11.85;;;8.23;;
23270;SDS011;11804;51.118;17.058;2022-08-30T07:46:23;11.35;;;7.92;;
23270;SDS011;11804;51.118;17.058;2022-08-30T07:48:50;8.95;;;6.62;;
23270;SDS011;11804;51.118;17.058;2022-08-30T07:51:21;13.30;;;6.95;;
23270;SDS011;11804;51.118;17.058;2022-08-30T07:53:51;9.90;;;7.42;;
23270;SDS011;11804;51.118;17.058;2022-08-30T07:56:20;12.73;;;7.08;;
23270;SDS011;11804;51.118;17.058;2022-08-30T07:58:48;11.08;;;7.40;;
23270;SDS011;11804;51.118;17.058;2022-08-30T08:01:16;9.15;;;6.90;;
23270;SDS011;11804;51.118;17.058;2022-08-30T08:03:46;10.65;;;6.20;;
23270;SDS011;11804;51.118;17.058;2022-08-30T08:06:15;8.90;;;6.40;;
23270;SDS011;11804;51.118;17.058;2022-08-30T08:08:45;7.47;;;6.30;;
23270;SDS011;11804;51.118;17.058;2022-08-30T08:11:22;7.35;;;5.83;;
23270;SDS011;11804;51.118;17.058;2022-08-30T08:13:47;8.60;;;6.00;;
23270;SDS011;11804;51.118;17.058;2022-08-30T08:16:17;8.08;;;6.30;;
23270;SDS011;11804;51.118;17.058;2022-08-30T08:18:46;13.58;;;9.00;;
23270;SDS011;11804;51.118;17.058;2022-08-30T08:21:14;8.05;;;6.50;;
23270;SDS011;11804;51.118;17.058;2022-08-30T08:23:42;8.33;;;6.05;;
23270;SDS011;11804;51.118;17.058;2022-08-30T08:26:09;10.88;;;6.28;;
23270;SDS011;11804;51.118;17.058;2022-08-30T08:28:37;17.80;;;6.20;;
23270;SDS011;11804;51.118;17.058;2022-08-30T08:31:13;7.17;;;5.30;;
23270;SDS011;11804;51.118;17.058;2022-08-30T08:33:41;9.45;;;5.33;;
23270;SDS011;11804;51.118;17.058;2022-08-30T08:36:09;9.05;;;5.60;;
23270;SDS011;11804;51.118;17.058;2022-08-30T08:38:37;5.70;;;5.05;;
23270;SDS011;11804;51.118;17.058;2022-08-30T08:43:52;4.78;;;4.35;;
23270;SDS011;11804;51.118;17.058;2022-08-30T08:48:57;4.65;;;3.77;;
23270;SDS011;11804;51.118;17.058;2022-08-30T08:51:30;5.15;;;3.60;;
23270;SDS011;11804;51.118;17.058;2022-08-30T08:56:53;8.90;;;3.95;;
23270;SDS011;11804;51.118;17.058;2022-08-30T08:59:23;12.30;;;4.50;;
23270;SDS011;11804;51.118;17.058;2022-08-30T09:01:53;7.30;;;4.37;;
23270;SDS011;11804;51.118;17.058;2022-08-30T09:04:37;8.40;;;5.03;;
23270;SDS011;11804;51.118;17.058;2022-08-30T09:07:13;6.22;;;4.92;;
23270;SDS011;11804;51.118;17.058;2022-08-30T09:09:39;6.10;;;4.17;;
23270;SDS011;11804;51.118;17.058;2022-08-30T09:12:09;6.97;;;4.85;;
23270;SDS011;11804;51.118;17.058;2022-08-30T09:14:39;8.63;;;4.90;;
23270;SDS011;11804;51.118;17.058;2022-08-30T09:17:15;5.72;;;4.28;;
23270;SDS011;11804;51.118;17.058;2022-08-30T09:19:44;7.12;;;4.15;;
23270;SDS011;11804;51.118;17.058;2022-08-30T09:22:22;8.73;;;4.20;;
23270;SDS011;11804;51.118;17.058;2022-08-30T09:24:58;11.43;;;4.22;;
23270;SDS011;11804;51.118;17.058;2022-08-30T09:27:38;8.30;;;4.35;;
23270;SDS011;11804;51.118;17.058;2022-08-30T09:30:17;5.25;;;3.65;;
23270;SDS011;11804;51.118;17.058;2022-08-30T09:32:56;6.37;;;3.60;;
23270;SDS011;11804;51.118;17.058;2022-08-30T09:38:06;7.25;;;2.75;;
23270;SDS011;11804;51.118;17.058;2022-08-30T09:40:42;3.70;;;2.50;;
23270;SDS011;11804;51.118;17.058;2022-08-30T09:45:45;6.30;;;2.92;;
23270;SDS011;11804;51.118;17.058;2022-08-30T09:48:29;3.22;;;2.20;;
23270;SDS011;11804;51.118;17.058;2022-08-30T09:51:07;7.05;;;2.30;;
23270;SDS011;11804;51.118;17.058;2022-08-30T09:53:42;7.15;;;2.30;;
23270;SDS011;11804;51.118;17.058;2022-08-30T09:56:10;5.60;;;2.25;;
23270;SDS011;11804;51.118;17.058;2022-08-30T10:01:47;7.25;;;2.85;;
23270;SDS011;11804;51.118;17.058;2022-08-30T10:04:24;4.58;;;2.95;;
23270;SDS011;11804;51.118;17.058;2022-08-30T10:09:56;3.10;;;2.80;;
23270;SDS011;11804;51.118;17.058;2022-08-30T10:13:13;5.30;;;3.10;;
23270;SDS011;11804;51.118;17.058;2022-08-30T10:15:16;3.25;;;2.72;;
23270;SDS011;11804;51.118;17.058;2022-08-30T10:20:41;4.12;;;2.87;;
23270;SDS011;11804;51.118;17.058;2022-08-30T10:23:44;4.90;;;3.20;;
23270;SDS011;11804;51.118;17.058;2022-08-30T10:29:05;6.60;;;2.80;;
23270;SDS011;11804;51.118;17.058;2022-08-30T10:34:56;4.00;;;3.47;;
23270;SDS011;11804;51.118;17.058;2022-08-30T10:36:57;5.55;;;3.40;;
23270;SDS011;11804;51.118;17.058;2022-08-30T10:39:30;4.80;;;3.30;;
23270;SDS011;11804;51.118;17.058;2022-08-30T10:42:04;4.62;;;2.90;;
23270;SDS011;11804;51.118;17.058;2022-08-30T10:44:42;3.30;;;3.00;;
23270;SDS011;11804;51.118;17.058;2022-08-30T10:47:12;5.80;;;2.70;;
23270;SDS011;11804;51.118;17.058;2022-08-30T10:49:46;4.45;;;2.87;;
23270;SDS011;11804;51.118;17.058;2022-08-30T10:54:59;3.50;;;2.80;;
23270;SDS011;11804;51.118;17.058;2022-08-30T10:57:41;4.12;;;2.87;;
23270;SDS011;11804;51.118;17.058;2022-08-30T11:00:14;14.33;;;4.70;;
23270;SDS011;11804;51.118;17.058;2022-08-30T11:02:57;7.83;;;3.15;;
23270;SDS011;11804;51.118;17.058;2022-08-30T11:05:28;57.13;;;7.30;;
23270;SDS011;11804;51.118;17.058;2022-08-30T11:13:51;4.08;;;2.55;;
23270;SDS011;11804;51.118;17.058;2022-08-30T11:16:20;7.60;;;2.58;;
23270;SDS011;11804;51.118;17.058;2022-08-30T11:18:51;4.40;;;2.62;;
23270;SDS011;11804;51.118;17.058;2022-08-30T11:21:32;2.30;;;2.10;;
23270;SDS011;11804;51.118;17.058;2022-08-30T11:24:18;2.58;;;2.20;;
23270;SDS011;11804;51.118;17.058;2022-08-30T11:29:33;2.25;;;2.00;;
23270;SDS011;11804;51.118;17.058;2022-08-30T11:31:58;4.85;;;2.40;;
23270;SDS011;11804;51.118;17.058;2022-08-30T11:37:35;5.67;;;2.12;;
23270;SDS011;11804;51.118;17.058;2022-08-30T11:40:08;2.77;;;2.25;;
23270;SDS011;11804;51.118;17.058;2022-08-30T11:42:40;4.37;;;1.62;;
23270;SDS011;11804;51.118;17.058;2022-08-30T11:47:51;3.00;;;1.95;;
23270;SDS011;11804;51.118;17.058;2022-08-30T11:55:59;3.50;;;2.20;;
23270;SDS011;11804;51.118;17.058;2022-08-30T12:01:17;3.83;;;2.12;;
23270;SDS011;11804;51.118;17.058;2022-08-30T12:04:40;2.83;;;2.12;;
23270;SDS011;11804;51.118;17.058;2022-08-30T12:06:53;6.35;;;2.27;;
23270;SDS011;11804;51.118;17.058;2022-08-30T12:11:57;3.95;;;2.08;;
23270;SDS011;11804;51.118;17.058;2022-08-30T12:14:33;6.08;;;2.05;;
23270;SDS011;11804;51.118;17.058;2022-08-30T12:17:15;4.37;;;2.30;;
23270;SDS011;11804;51.118;17.058;2022-08-30T12:20:18;5.10;;;2.30;;
23270;SDS011;11804;51.118;17.058;2022-08-30T12:22:50;5.78;;;2.22;;
23270;SDS011;11804;51.118;17.058;2022-08-30T12:25:21;4.85;;;2.17;;
23270;SDS011;11804;51.118;17.058;2022-08-30T12:28:07;2.45;;;1.67;;
23270;SDS011;11804;51.118;17.058;2022-08-30T12:30:35;4.33;;;1.80;;
23270;SDS011;11804;51.118;17.058;2022-08-30T12:33:05;6.85;;;1.80;;
23270;SDS011;11804;51.118;17.058;2022-08-30T12:35:34;5.95;;;1.90;;
23270;SDS011;11804;51.118;17.058;2022-08-30T12:38:04;3.20;;;2.00;;
23270;SDS011;11804;51.118;17.058;2022-08-30T12:40:33;2.83;;;1.82;;
23270;SDS011;11804;51.118;17.058;2022-08-30T12:43:02;3.52;;;1.55;;
23270;SDS011;11804;51.118;17.058;2022-08-30T12:45:32;2.10;;;1.90;;
23270;SDS011;11804;51.118;17.058;2022-08-30T12:48:05;3.45;;;2.27;;
23270;SDS011;11804;51.118;17.058;2022-08-30T12:50:37;4.00;;;2.17;;
23270;SDS011;11804;51.118;17.058;2022-08-30T12:53:21;2.00;;;1.80;;
23270;SDS011;11804;51.118;17.058;2022-08-30T12:58:33;2.87;;;1.95;;
23270;SDS011;11804;51.118;17.058;2022-08-30T13:04:00;5.50;;;2.00;;
23270;SDS011;11804;51.118;17.058;2022-08-30T13:11:59;2.52;;;1.55;;
23270;SDS011;11804;51.118;17.058;2022-08-30T13:14:36;6.92;;;1.98;;
23270;SDS011;11804;51.118;17.058;2022-08-30T13:17:19;3.05;;;1.98;;
23270;SDS011;11804;51.118;17.058;2022-08-30T13:20:00;4.35;;;1.80;;
23270;SDS011;11804;51.118;17.058;2022-08-30T13:25:08;5.62;;;1.90;;
23270;SDS011;11804;51.118;17.058;2022-08-30T13:27:38;3.58;;;1.80;;
23270;SDS011;11804;51.118;17.058;2022-08-30T13:30:07;3.42;;;2.00;;
23270;SDS011;11804;51.118;17.058;2022-08-30T13:32:41;3.00;;;1.98;;
23270;SDS011;11804;51.118;17.058;2022-08-30T13:35:09;2.60;;;1.60;;
23270;SDS011;11804;51.118;17.058;2022-08-30T13:37:38;2.95;;;1.77;;
23270;SDS011;11804;51.118;17.058;2022-08-30T13:40:10;2.67;;;2.02;;
23270;SDS011;11804;51.118;17.058;2022-08-30T13:42:39;4.40;;;1.70;;
23270;SDS011;11804;51.118;17.058;2022-08-30T13:45:08;4.65;;;2.08;;
23270;SDS011;11804;51.118;17.058;2022-08-30T13:47:37;2.83;;;1.62;;
23270;SDS011;11804;51.118;17.058;2022-08-30T13:50:05;3.00;;;1.30;;
23270;SDS011;11804;51.118;17.058;2022-08-30T13:52:33;4.40;;;2.02;;
23270;SDS011;11804;51.118;17.058;2022-08-30T13:55:00;4.28;;;2.17;;
23270;SDS011;11804;51.118;17.058;2022-08-30T13:57:29;2.27;;;1.70;;
23270;SDS011;11804;51.118;17.058;2022-08-30T13:59:56;2.45;;;1.70;;
23270;SDS011;11804;51.118;17.058;2022-08-30T14:02:24;3.85;;;1.52;;
23270;SDS011;11804;51.118;17.058;2022-08-30T14:04:51;3.87;;;1.92;;
23270;SDS011;11804;51.118;17.058;2022-08-30T14:07:19;1.90;;;1.70;;
23270;SDS011;11804;51.118;17.058;2022-08-30T14:09:46;2.52;;;1.80;;
23270;SDS011;11804;51.118;17.058;2022-08-30T14:12:14;3.87;;;1.80;;
23270;SDS011;11804;51.118;17.058;2022-08-30T14:14:42;2.58;;;1.60;;
23270;SDS011;11804;51.118;17.058;2022-08-30T14:17:09;2.70;;;1.62;;
23270;SDS011;11804;51.118;17.058;2022-08-30T14:19:37;2.85;;;1.62;;
23270;SDS011;11804;51.118;17.058;2022-08-30T14:22:04;5.33;;;2.00;;
23270;SDS011;11804;51.118;17.058;2022-08-30T14:24:32;2.90;;;1.57;;
23270;SDS011;11804;51.118;17.058;2022-08-30T14:26:59;3.77;;;1.75;;
23270;SDS011;11804;51.118;17.058;2022-08-30T14:29:27;2.22;;;1.90;;
23270;SDS011;11804;51.118;17.058;2022-08-30T14:31:56;3.77;;;1.80;;
23270;SDS011;11804;51.118;17.058;2022-08-30T14:34:25;2.75;;;2.33;;
23270;SDS011;11804;51.118;17.058;2022-08-30T14:36:52;2.05;;;1.85;;
23270;SDS011;11804;51.118;17.058;2022-08-30T14:39:21;3.45;;;1.80;;
23270;SDS011;11804;51.118;17.058;2022-08-30T14:41:50;1.60;;;1.50;;
23270;SDS011;11804;51.118;17.058;2022-08-30T14:44:19;4.00;;;1.80;;
23270;SDS011;11804;51.118;17.058;2022-08-30T14:46:48;5.45;;;2.27;;
23270;SDS011;11804;51.118;17.058;2022-08-30T14:49:16;3.75;;;2.55;;
23270;SDS011;11804;51.118;17.058;2022-08-30T14:51:44;7.15;;;2.08;;
23270;SDS011;11804;51.118;17.058;2022-08-30T14:54:13;6.55;;;2.02;;
23270;SDS011;11804;51.118;17.058;2022-08-30T14:56:42;4.72;;;1.80;;
23270;SDS011;11804;51.118;17.058;2022-08-30T14:59:10;2.30;;;1.50;;
23270;SDS011;11804;51.118;17.058;2022-08-30T15:01:39;6.28;;;1.72;;
23270;SDS011;11804;51.118;17.058;2022-08-30T15:04:07;6.55;;;1.98;;
23270;SDS011;11804;51.118;17.058;2022-08-30T15:06:38;4.15;;;1.87;;
23270;SDS011;11804;51.118;17.058;2022-08-30T15:09:08;1.90;;;1.50;;
23270;SDS011;11804;51.118;17.058;2022-08-30T15:11:37;1.42;;;1.30;;
23270;SDS011;11804;51.118;17.058;2022-08-30T15:14:04;1.90;;;1.70;;
23270;SDS011;11804;51.118;17.058;2022-08-30T15:16:33;3.62;;;1.65;;
23270;SDS011;11804;51.118;17.058;2022-08-30T15:19:03;1.52;;;1.40;;
23270;SDS011;11804;51.118;17.058;2022-08-30T15:21:36;4.25;;;1.95;;
23270;SDS011;11804;51.118;17.058;2022-08-30T15:24:06;6.05;;;3.62;;
23270;SDS011;11804;51.118;17.058;2022-08-30T15:26:34;3.58;;;2.20;;
23270;SDS011;11804;51.118;17.058;2022-08-30T15:29:04;3.92;;;2.37;;
23270;SDS011;11804;51.118;17.058;2022-08-30T15:31:33;5.37;;;2.30;;
23270;SDS011;11804;51.118;17.058;2022-08-30T15:34:00;6.42;;;2.27;;
23270;SDS011;11804;51.118;17.058;2022-08-30T15:36:28;6.15;;;2.15;;
23270;SDS011;11804;51.118;17.058;2022-08-30T15:38:56;4.62;;;2.47;;
23270;SDS011;11804;51.118;17.058;2022-08-30T15:41:25;4.40;;;3.95;;
23270;SDS011;11804;51.118;17.058;2022-08-30T15:43:54;4.55;;;2.70;;
23270;SDS011;11804;51.118;17.058;2022-08-30T15:49:02;4.25;;;2.22;;
23270;SDS011;11804;51.118;17.058;2022-08-30T15:51:40;5.28;;;2.08;;
23270;SDS011;11804;51.118;17.058;2022-08-30T15:54:10;4.62;;;2.42;;
23270;SDS011;11804;51.118;17.058;2022-08-30T15:56:40;2.50;;;2.30;;
23270;SDS011;11804;51.118;17.058;2022-08-30T15:59:08;3.37;;;2.52;;
23270;SDS011;11804;51.118;17.058;2022-08-30T16:01:36;3.52;;;2.45;;